createdAt,value
2022-11-10T00:02:28.377Z,2.97
2022-11-10T00:05:15.330Z,3.00
2022-11-10T00:08:03.617Z,2.03
2022-11-10T00:10:58.717Z,2.73
2022-11-10T00:14:02.757Z,1.40
2022-11-10T00:17:04.561Z,2.27
2022-11-10T00:19:50.836Z,2.17
2022-11-10T00:22:37.480Z,2.73
2022-11-10T00:25:23.653Z,2.73
2022-11-10T00:28:09.630Z,3.03
2022-11-10T00:30:57.036Z,2.90
2022-11-10T00:33:43.704Z,1.33
2022-11-10T00:36:30.265Z,3.30
2022-11-10T00:39:16.400Z,1.43
2022-11-10T00:42:02.293Z,2.13
2022-11-10T00:44:48.392Z,2.90
2022-11-10T00:47:35.614Z,1.20
2022-11-10T00:50:21.761Z,1.47
2022-11-10T00:53:07.953Z,1.50
2022-11-10T00:55:54.885Z,2.60
2022-11-10T00:58:41.202Z,1.53
2022-11-10T01:01:27.476Z,2.17
2022-11-10T01:04:14.855Z,4.70
2022-11-10T01:07:00.972Z,1.60
2022-11-10T01:09:46.801Z,3.20
2022-11-10T01:12:33.262Z,3.30
2022-11-10T01:15:25.977Z,3.60
2022-11-10T01:18:13.305Z,3.60
2022-11-10T01:21:00.834Z,2.30
2022-11-10T01:23:46.735Z,2.13
2022-11-10T01:26:32.768Z,1.63
2022-11-10T01:29:18.600Z,3.57
2022-11-10T01:32:04.759Z,2.13
2022-11-10T01:34:50.849Z,0.67
2022-11-10T01:37:38.086Z,2.20
2022-11-10T01:40:24.128Z,2.73
2022-11-10T01:43:10.988Z,2.07
2022-11-10T01:45:57.326Z,7.40
2022-11-10T01:48:45.149Z,2.13
2022-11-10T01:51:33.384Z,3.03
2022-11-10T01:54:23.129Z,0.70
2022-11-10T01:57:10.981Z,2.80
2022-11-10T01:59:57.324Z,4.73
2022-11-10T02:02:45.308Z,3.53
2022-11-10T02:05:31.745Z,5.23
2022-11-10T02:08:18.937Z,4.20
2022-11-10T02:11:06.332Z,2.47
2022-11-10T02:13:53.521Z,2.13
2022-11-10T02:16:40.255Z,2.53
2022-11-10T02:19:27.283Z,3.00
2022-11-10T02:22:14.772Z,1.90
2022-11-10T02:25:01.039Z,1.63
2022-11-10T02:27:47.132Z,1.73
2022-11-10T02:30:33.882Z,2.63
2022-11-10T02:33:20.321Z,1.77
2022-11-10T02:36:06.852Z,2.67
2022-11-10T02:38:54.540Z,2.63
2022-11-10T02:41:40.657Z,4.40
2022-11-10T02:44:26.917Z,1.87
2022-11-10T02:47:13.131Z,2.93
2022-11-10T02:49:58.925Z,4.00
2022-11-10T02:52:44.845Z,2.43
2022-11-10T02:55:32.153Z,2.80
2022-11-10T02:58:18.096Z,4.50
2022-11-10T03:01:06.717Z,2.33
2022-11-10T03:03:52.969Z,1.23
2022-11-10T03:06:38.942Z,3.30
2022-11-10T03:09:24.891Z,5.07
2022-11-10T03:12:12.065Z,3.03
2022-11-10T03:14:57.906Z,4.47
2022-11-10T03:17:44.404Z,4.57
2022-11-10T03:20:30.220Z,2.03
2022-11-10T03:23:16.703Z,3.97
2022-11-10T03:26:04.708Z,2.73
2022-11-10T03:28:51.911Z,3.33
2022-11-10T03:31:37.700Z,3.80
2022-11-10T03:34:26.977Z,3.40
2022-11-10T03:37:15.569Z,4.27
2022-11-10T03:40:02.000Z,3.90
2022-11-10T03:42:47.986Z,3.20
2022-11-10T03:45:35.262Z,5.13
2022-11-10T03:48:21.336Z,0.80
2022-11-10T03:51:07.529Z,1.83
2022-11-10T03:53:53.817Z,2.37
2022-11-10T03:56:39.992Z,2.57
2022-11-10T03:59:25.977Z,2.63
2022-11-10T04:02:13.517Z,7.23
2022-11-10T04:05:17.192Z,5.23
2022-11-10T04:08:20.754Z,3.97
2022-11-10T04:11:07.000Z,3.33
2022-11-10T04:14:18.694Z,2.57
2022-11-10T04:17:05.341Z,1.47
2022-11-10T04:19:52.710Z,3.20
2022-11-10T04:22:56.680Z,2.27
2022-11-10T04:26:05.259Z,2.50
2022-11-10T04:28:51.725Z,4.00
2022-11-10T04:31:39.342Z,2.50
2022-11-10T04:34:25.431Z,1.57
2022-11-10T04:37:12.706Z,2.30
2022-11-10T04:39:58.606Z,4.07
2022-11-10T04:42:44.476Z,4.33
2022-11-10T04:45:30.510Z,4.47
2022-11-10T04:48:16.356Z,3.17
2022-11-10T04:51:03.971Z,2.73
2022-11-10T04:53:51.334Z,3.90
2022-11-10T04:56:37.917Z,3.87
2022-11-10T04:59:23.742Z,4.00
2022-11-10T05:02:09.711Z,2.07
2022-11-10T05:04:55.827Z,1.60
2022-11-10T05:07:42.056Z,2.20
2022-11-10T05:10:29.467Z,4.20
2022-11-10T05:13:15.394Z,2.63
2022-11-10T05:16:01.290Z,3.30
2022-11-10T05:18:47.162Z,3.23
2022-11-10T05:21:34.053Z,3.73
2022-11-10T05:24:19.951Z,1.47
2022-11-10T05:27:08.361Z,3.77
2022-11-10T05:29:54.555Z,1.83
2022-11-10T05:32:40.750Z,4.90
2022-11-10T05:35:27.020Z,3.93
2022-11-10T05:38:12.845Z,2.50
2022-11-10T05:40:58.845Z,4.13
2022-11-10T05:43:46.105Z,4.37
2022-11-10T05:46:32.063Z,5.50
2022-11-10T05:49:18.245Z,3.60
2022-11-10T05:52:04.597Z,5.23
2022-11-10T05:54:50.453Z,3.07
2022-11-10T05:57:36.621Z,5.00
2022-11-10T06:00:25.597Z,5.43
2022-11-10T06:03:14.336Z,2.97
2022-11-10T06:06:00.268Z,2.90
2022-11-10T06:08:46.232Z,2.73
2022-11-10T06:11:32.171Z,6.93
2022-11-10T06:14:18.110Z,2.23
2022-11-10T06:17:05.619Z,4.30
2022-11-10T06:19:51.448Z,5.10
2022-11-10T06:22:37.607Z,6.43
2022-11-10T06:25:24.393Z,2.40
2022-11-10T06:28:11.016Z,7.20
2022-11-10T06:30:58.043Z,3.87
2022-11-10T06:33:45.501Z,3.20
2022-11-10T06:36:31.695Z,2.90
2022-11-10T06:39:18.131Z,3.67
2022-11-10T06:42:04.059Z,5.90
2022-11-10T06:44:49.991Z,3.93
2022-11-10T06:47:36.137Z,5.37
2022-11-10T06:50:23.610Z,2.57
2022-11-10T06:53:10.410Z,3.73
2022-11-10T06:55:56.576Z,4.50
2022-11-10T06:58:42.433Z,2.83
2022-11-10T07:01:28.409Z,2.13
2022-11-10T07:04:20.365Z,3.63
2022-11-10T07:07:08.817Z,5.03
2022-11-10T07:09:55.040Z,4.23
2022-11-10T07:12:40.833Z,3.27
2022-11-10T07:15:27.223Z,3.40
2022-11-10T07:18:13.444Z,4.50
2022-11-10T07:20:59.346Z,5.63
2022-11-10T07:23:47.223Z,4.60
2022-11-10T07:26:32.988Z,4.33
2022-11-10T07:29:19.117Z,3.73
2022-11-10T07:32:05.409Z,4.67
2022-11-10T07:34:51.313Z,2.33
2022-11-10T07:37:37.318Z,4.93
2022-11-10T07:40:24.977Z,4.80
2022-11-10T07:43:11.139Z,4.67
2022-11-10T07:45:57.638Z,3.97
2022-11-10T07:48:43.489Z,6.80
2022-11-10T07:51:30.737Z,2.60
2022-11-10T07:54:16.992Z,3.20
2022-11-10T07:57:04.118Z,2.17
2022-11-10T07:59:52.878Z,5.10
2022-11-10T08:02:41.719Z,2.33
2022-11-10T08:05:28.126Z,3.57
2022-11-10T08:08:14.391Z,2.80
2022-11-10T08:11:00.625Z,4.37
2022-11-10T08:13:48.113Z,3.63
2022-11-10T08:16:34.217Z,3.80
2022-11-10T08:19:20.167Z,4.83
2022-11-10T08:22:06.275Z,5.60
2022-11-10T08:24:52.140Z,3.43
2022-11-10T08:27:37.985Z,8.07
2022-11-10T08:30:25.447Z,5.53
2022-11-10T08:33:12.913Z,3.23
2022-11-10T08:36:01.513Z,4.93
2022-11-10T08:38:47.476Z,4.93
2022-11-10T08:41:33.573Z,5.03
2022-11-10T08:44:20.961Z,5.23
2022-11-10T08:47:08.776Z,5.93
2022-11-10T08:49:54.533Z,5.10
2022-11-10T08:52:40.363Z,3.70
2022-11-10T08:55:26.443Z,3.10
2022-11-10T08:58:12.887Z,3.27
2022-11-10T09:00:59.220Z,4.50
2022-11-10T09:03:46.502Z,4.87
2022-11-10T09:06:32.344Z,1.23
2022-11-10T09:09:18.741Z,3.43
2022-11-10T09:12:04.779Z,6.83
2022-11-10T09:14:50.525Z,5.13
2022-11-10T09:17:36.589Z,4.40
2022-11-10T09:20:23.866Z,4.77
2022-11-10T09:23:10.486Z,2.97
2022-11-10T09:25:57.277Z,3.47
2022-11-10T09:28:43.087Z,4.77
2022-11-10T09:31:29.039Z,6.03
2022-11-10T09:34:15.509Z,4.57
2022-11-10T09:37:02.614Z,4.83
2022-11-10T09:39:48.708Z,3.50
2022-11-10T09:42:37.399Z,6.40
2022-11-10T09:45:25.377Z,4.23
2022-11-10T09:48:16.869Z,5.30
2022-11-10T09:51:04.098Z,5.30
2022-11-10T09:53:52.593Z,5.80
2022-11-10T09:56:38.703Z,2.93
2022-11-10T09:59:26.412Z,9.13
2022-11-10T10:02:19.059Z,2.83
2022-11-10T10:05:11.955Z,5.97
2022-11-10T10:08:01.373Z,4.53
2022-11-10T10:10:52.497Z,4.70
2022-11-10T10:13:47.227Z,5.87
2022-11-10T10:16:37.203Z,2.77
2022-11-10T10:19:28.447Z,3.10
2022-11-10T10:22:24.464Z,2.63
2022-11-10T10:25:12.873Z,6.53
2022-11-10T10:28:02.503Z,6.20
2022-11-10T10:30:48.371Z,6.63
2022-11-10T10:33:34.589Z,5.87
2022-11-10T10:36:27.958Z,4.50
2022-11-10T10:39:15.952Z,10.83
2022-11-10T10:42:03.151Z,4.63
2022-11-10T10:45:04.254Z,5.47
2022-11-10T10:47:52.716Z,2.77
2022-11-10T10:50:43.629Z,6.47
2022-11-10T10:53:29.760Z,4.37
2022-11-10T10:56:18.476Z,3.43
2022-11-10T10:59:05.955Z,3.20
2022-11-10T11:01:54.440Z,5.40
2022-11-10T11:04:42.311Z,4.50
2022-11-10T11:07:28.255Z,4.67
2022-11-10T11:10:22.373Z,3.47
2022-11-10T11:13:14.568Z,2.70
2022-11-10T11:16:01.535Z,4.03
2022-11-10T11:18:47.256Z,3.80
2022-11-10T11:21:35.899Z,2.83
2022-11-10T11:24:28.870Z,2.17
2022-11-10T11:27:18.399Z,3.90
2022-11-10T11:30:10.041Z,5.27
2022-11-10T11:33:16.939Z,2.23
2022-11-10T11:36:07.706Z,6.77
2022-11-10T11:38:59.455Z,4.97
2022-11-10T11:41:49.601Z,6.20
2022-11-10T11:44:44.103Z,4.47
2022-11-10T11:47:36.775Z,5.67
2022-11-10T11:50:28.035Z,2.40
2022-11-10T11:53:20.035Z,3.70
2022-11-10T11:56:14.757Z,5.27
2022-11-10T11:59:08.179Z,3.57
2022-11-10T12:02:01.954Z,3.30
2022-11-10T12:04:52.509Z,5.07
2022-11-10T12:07:45.237Z,3.73
2022-11-10T12:10:42.832Z,3.10
2022-11-10T12:13:48.041Z,4.30
2022-11-10T12:16:35.687Z,3.70
2022-11-10T12:19:26.580Z,2.07
2022-11-10T12:22:17.809Z,6.70
2022-11-10T12:25:14.488Z,5.53
2022-11-10T12:28:10.593Z,2.43
2022-11-10T12:31:02.111Z,3.27
2022-11-10T12:33:50.212Z,4.17
2022-11-10T12:36:36.487Z,5.33
2022-11-10T12:39:24.166Z,3.70
2022-11-10T12:42:13.823Z,2.03
2022-11-10T12:45:01.637Z,1.50
2022-11-10T12:47:49.277Z,3.87
2022-11-10T12:50:38.763Z,3.43
2022-11-10T12:53:25.897Z,3.80
2022-11-10T12:56:15.813Z,3.23
2022-11-10T12:59:24.367Z,2.43
2022-11-10T13:02:19.444Z,4.37
2022-11-10T13:05:20.335Z,2.90
2022-11-10T13:08:16.261Z,4.93
2022-11-10T13:11:04.451Z,2.77
2022-11-10T13:13:58.278Z,2.50
2022-11-10T13:16:51.847Z,6.13
2022-11-10T13:19:51.441Z,5.03
2022-11-10T13:22:40.861Z,4.50
2022-11-10T13:25:43.591Z,5.10
2022-11-10T13:28:48.269Z,3.67
2022-11-10T13:31:52.193Z,4.57
2022-11-10T13:34:38.696Z,6.33
2022-11-10T13:37:50.216Z,6.80
2022-11-10T13:40:37.369Z,5.03
2022-11-10T13:43:24.827Z,2.43
2022-11-10T13:46:10.837Z,5.50
2022-11-10T13:49:14.342Z,5.17
2022-11-10T13:52:06.963Z,3.07
2022-11-10T13:55:02.047Z,7.40
2022-11-10T13:57:58.085Z,3.50
2022-11-10T14:00:49.029Z,3.13
2022-11-10T14:03:57.341Z,6.87
2022-11-10T14:06:46.244Z,11.60
2022-11-10T14:09:33.466Z,4.10
2022-11-10T14:12:25.786Z,2.90
2022-11-10T14:15:15.940Z,6.47
2022-11-10T14:18:02.123Z,3.97
2022-11-10T14:20:49.026Z,5.77
2022-11-10T14:23:37.260Z,5.70
2022-11-10T14:26:25.625Z,6.13
2022-11-10T14:29:35.919Z,4.90
2022-11-10T14:32:24.748Z,7.40
2022-11-10T14:35:18.886Z,6.83
2022-11-10T14:38:07.093Z,5.07
2022-11-10T14:40:54.728Z,6.73
2022-11-10T14:43:40.824Z,1.70
2022-11-10T14:46:26.971Z,5.77
2022-11-10T14:49:14.319Z,5.70
2022-11-10T14:52:00.394Z,8.97
2022-11-10T14:54:47.487Z,5.03
2022-11-10T14:57:33.276Z,5.50
2022-11-10T15:00:20.461Z,6.37
2022-11-10T15:03:07.367Z,6.00
2022-11-10T15:05:55.354Z,4.27
2022-11-10T15:08:42.066Z,5.07
2022-11-10T15:11:35.123Z,8.97
2022-11-10T15:14:38.154Z,8.03
2022-11-10T15:17:43.547Z,4.50
2022-11-10T15:20:30.675Z,5.47
2022-11-10T15:23:21.874Z,6.17
2022-11-10T15:26:14.985Z,4.37
2022-11-10T15:29:00.996Z,2.90
2022-11-10T15:31:46.963Z,5.67
2022-11-10T15:34:41.248Z,8.87
2022-11-10T15:37:30.922Z,5.80
2022-11-10T15:40:31.658Z,5.70
2022-11-10T15:43:26.964Z,5.53
2022-11-10T15:46:18.144Z,6.73
2022-11-10T15:49:04.680Z,3.50
2022-11-10T15:51:52.157Z,6.90
2022-11-10T15:54:38.413Z,2.10
2022-11-10T15:57:26.034Z,7.87
2022-11-10T16:00:13.486Z,3.97
2022-11-10T16:02:59.659Z,7.33
2022-11-10T16:05:46.001Z,5.93
2022-11-10T16:08:34.514Z,7.40
2022-11-10T16:11:21.200Z,5.30
2022-11-10T16:14:11.771Z,13.27
2022-11-10T16:16:57.622Z,9.50
2022-11-10T16:19:43.517Z,6.43
2022-11-10T16:22:29.736Z,8.13
2022-11-10T16:25:22.672Z,5.43
2022-11-10T16:28:11.844Z,7.03
2022-11-10T16:30:59.399Z,9.53
2022-11-10T16:33:46.559Z,6.97
2022-11-10T16:36:34.427Z,5.07
2022-11-10T16:39:20.772Z,5.43
2022-11-10T16:42:06.896Z,9.63
2022-11-10T16:44:52.733Z,3.73
2022-11-10T16:47:40.224Z,6.73
2022-11-10T16:50:36.165Z,6.97
2022-11-10T16:53:22.948Z,5.37
2022-11-10T16:56:13.378Z,4.20
2022-11-10T16:58:59.505Z,7.13
2022-11-10T17:01:46.848Z,9.03
2022-11-10T17:04:34.098Z,5.57
2022-11-10T17:07:21.461Z,6.73
2022-11-10T17:10:14.234Z,7.10
2022-11-10T17:13:00.198Z,11.03
2022-11-10T17:15:47.183Z,9.93
2022-11-10T17:18:34.225Z,5.47
2022-11-10T17:21:22.572Z,6.33
2022-11-10T17:24:11.329Z,8.73
2022-11-10T17:26:57.759Z,6.87
2022-11-10T17:29:43.806Z,6.53
2022-11-10T17:33:02.552Z,9.20
2022-11-10T17:35:40.561Z,9.63
2022-11-10T17:38:29.212Z,6.10
2022-11-10T17:41:16.928Z,6.57
2022-11-10T17:44:02.957Z,8.57
2022-11-10T17:46:49.156Z,10.17
2022-11-10T17:49:35.210Z,4.93
2022-11-10T17:52:21.137Z,7.33
2022-11-10T17:55:08.832Z,4.40
2022-11-10T17:57:54.997Z,6.47
2022-11-10T18:00:41.257Z,4.60
2022-11-10T18:03:27.381Z,4.43
2022-11-10T18:06:16.366Z,7.53
2022-11-10T18:09:02.548Z,7.77
2022-11-10T18:11:50.197Z,8.67
2022-11-10T18:14:36.083Z,8.20
2022-11-10T18:17:22.205Z,9.27
2022-11-10T18:20:08.524Z,15.27
2022-11-10T18:22:54.800Z,10.37
2022-11-10T18:25:41.027Z,15.63
2022-11-10T18:28:28.414Z,12.50
2022-11-10T18:31:14.851Z,7.67
2022-11-10T18:34:00.776Z,10.93
2022-11-10T18:36:46.727Z,10.10
2022-11-10T18:39:32.757Z,12.60
2022-11-10T18:42:18.620Z,20.10
2022-11-10T18:45:06.475Z,15.50
2022-11-10T18:47:52.734Z,8.33
2022-11-10T18:50:38.609Z,6.43
2022-11-10T18:53:25.222Z,8.23
2022-11-10T18:56:11.714Z,5.20
2022-11-10T18:58:57.717Z,5.63
2022-11-10T19:01:44.987Z,9.33
2022-11-10T19:04:31.149Z,8.87
2022-11-10T19:07:17.202Z,6.07
2022-11-10T19:10:03.213Z,9.83
2022-11-10T19:12:49.029Z,6.57
2022-11-10T19:15:40.115Z,6.77
2022-11-10T19:18:27.272Z,10.03
2022-11-10T19:21:14.458Z,5.90
2022-11-10T19:24:00.584Z,7.27
2022-11-10T19:26:46.810Z,9.33
2022-11-10T19:29:32.945Z,9.17
2022-11-10T19:32:24.511Z,7.87
2022-11-10T19:35:13.363Z,8.43
2022-11-10T19:37:59.544Z,10.07
2022-11-10T19:40:45.923Z,7.23
2022-11-10T19:43:32.119Z,7.03
2022-11-10T19:46:19.405Z,5.53
2022-11-10T19:49:06.248Z,5.83
2022-11-10T19:51:54.198Z,5.13
2022-11-10T19:54:39.986Z,4.93
2022-11-10T19:57:26.446Z,3.73
2022-11-10T20:00:13.068Z,9.03
2022-11-10T20:02:59.367Z,9.93
2022-11-10T20:05:46.573Z,6.17
2022-11-10T20:08:34.096Z,7.53
2022-11-10T20:11:22.003Z,11.27
2022-11-10T20:14:08.348Z,10.63
2022-11-10T20:16:54.405Z,8.77
2022-11-10T20:19:41.341Z,9.03
2022-11-10T20:22:27.984Z,6.80
2022-11-10T20:25:15.510Z,10.57
2022-11-10T20:28:03.430Z,7.80
2022-11-10T20:30:49.627Z,22.20
2022-11-10T20:33:36.167Z,15.40
2022-11-10T20:36:23.444Z,17.53
2022-11-10T20:39:09.353Z,18.00
2022-11-10T20:41:56.820Z,6.47
2022-11-10T20:44:42.693Z,3.77
2022-11-10T20:47:29.246Z,7.57
2022-11-10T20:50:19.184Z,9.53
2022-11-10T20:53:07.877Z,5.90
2022-11-10T20:55:57.665Z,7.33
2022-11-10T20:58:45.581Z,6.27
2022-11-10T21:01:32.456Z,5.93
2022-11-10T21:04:19.129Z,5.20
2022-11-10T21:07:05.276Z,8.27
2022-11-10T21:09:51.656Z,4.73
2022-11-10T21:12:52.722Z,4.77
2022-11-10T21:15:40.794Z,5.77
2022-11-10T21:18:28.617Z,7.40
2022-11-10T21:21:20.181Z,10.83
2022-11-10T21:24:07.561Z,8.20
2022-11-10T21:26:53.722Z,6.13
2022-11-10T21:29:39.931Z,5.70
2022-11-10T21:32:27.408Z,6.13
2022-11-10T21:35:13.594Z,8.00
2022-11-10T21:37:59.584Z,7.07
2022-11-10T21:40:45.832Z,7.73
2022-11-10T21:43:32.092Z,9.03
2022-11-10T21:46:18.533Z,8.33
2022-11-10T21:49:07.857Z,6.03
2022-11-10T21:51:54.012Z,9.03
2022-11-10T21:54:39.966Z,8.77
2022-11-10T21:57:25.935Z,4.17
2022-11-10T22:00:12.847Z,5.17
2022-11-10T22:02:59.259Z,4.50
2022-11-10T22:05:46.662Z,3.93
2022-11-10T22:08:32.762Z,5.93
2022-11-10T22:11:37.256Z,7.00
2022-11-10T22:14:40.973Z,3.30
2022-11-10T22:17:44.781Z,7.73
2022-11-10T22:20:30.819Z,7.77
2022-11-10T22:23:18.529Z,5.47
2022-11-10T22:26:04.702Z,4.40
2022-11-10T22:28:50.499Z,5.63
2022-11-10T22:31:36.669Z,5.23
2022-11-10T22:34:22.721Z,7.63
2022-11-10T22:37:08.785Z,3.50
2022-11-10T22:40:13.578Z,8.67
2022-11-10T22:43:17.427Z,6.60
2022-11-10T22:46:03.873Z,7.20
2022-11-10T22:48:50.032Z,5.10
2022-11-10T22:51:36.677Z,7.07
2022-11-10T22:54:24.340Z,6.83
2022-11-10T22:57:11.949Z,7.23
2022-11-10T22:59:58.245Z,6.00
2022-11-10T23:02:44.059Z,9.50
2022-11-10T23:05:30.391Z,6.83
2022-11-10T23:08:16.569Z,8.67
2022-11-10T23:11:03.249Z,8.40
2022-11-10T23:13:50.855Z,9.70
2022-11-10T23:16:37.097Z,10.43
2022-11-10T23:19:23.077Z,9.43
2022-11-10T23:22:08.949Z,6.60
2022-11-10T23:24:57.346Z,7.63
2022-11-10T23:27:43.629Z,5.53
2022-11-10T23:30:30.876Z,6.27
2022-11-10T23:33:17.100Z,4.57
2022-11-10T23:36:03.023Z,5.03
2022-11-10T23:38:49.265Z,3.90
2022-11-10T23:41:35.269Z,4.17
2022-11-10T23:44:21.740Z,4.30
2022-11-10T23:47:09.253Z,5.77
2022-11-10T23:49:55.301Z,3.93
2022-11-10T23:52:41.317Z,3.80
2022-11-10T23:55:27.857Z,4.80
2022-11-10T23:58:13.729Z,4.50
